sensor_id;sensor_type;location;lat;lon;timestamp;P1;durP1;ratioP1;P2;durP2;ratioP2
4529;SDS011;2277;51.626;7.516;2022-12-07T00:01:14;9.67;;;6.67;;
4529;SDS011;2277;51.626;7.516;2022-12-07T00:03:46;7.03;;;5.47;;
4529;SDS011;2277;51.626;7.516;2022-12-07T00:06:14;7.50;;;6.90;;
4529;SDS011;2277;51.626;7.516;2022-12-07T00:08:41;7.13;;;6.43;;
4529;SDS011;2277;51.626;7.516;2022-12-07T00:11:08;8.70;;;7.73;;
4529;SDS011;2277;51.626;7.516;2022-12-07T00:13:38;12.50;;;7.80;;
4529;SDS011;2277;51.626;7.516;2022-12-07T00:16:08;12.43;;;8.87;;
4529;SDS011;2277;51.626;7.516;2022-12-07T00:18:44;7.43;;;6.70;;
4529;SDS011;2277;51.626;7.516;2022-12-07T00:21:29;7.03;;;6.33;;
4529;SDS011;2277;51.626;7.516;2022-12-07T00:23:56;12.80;;;8.33;;
4529;SDS011;2277;51.626;7.516;2022-12-07T00:28:59;7.47;;;5.90;;
4529;SDS011;2277;51.626;7.516;2022-12-07T00:31:27;6.70;;;5.90;;
4529;SDS011;2277;51.626;7.516;2022-12-07T00:33:55;8.70;;;7.80;;
4529;SDS011;2277;51.626;7.516;2022-12-07T00:36:22;8.57;;;7.87;;
4529;SDS011;2277;51.626;7.516;2022-12-07T00:38:49;6.73;;;6.17;;
4529;SDS011;2277;51.626;7.516;2022-12-07T00:41:15;7.20;;;6.50;;
4529;SDS011;2277;51.626;7.516;2022-12-07T00:43:43;7.70;;;6.40;;
4529;SDS011;2277;51.626;7.516;2022-12-07T00:46:10;6.40;;;5.80;;
4529;SDS011;2277;51.626;7.516;2022-12-07T00:48:36;5.50;;;5.00;;
4529;SDS011;2277;51.626;7.516;2022-12-07T00:51:02;6.60;;;5.90;;
4529;SDS011;2277;51.626;7.516;2022-12-07T00:53:29;8.60;;;7.43;;
4529;SDS011;2277;51.626;7.516;2022-12-07T00:55:54;6.53;;;5.87;;
4529;SDS011;2277;51.626;7.516;2022-12-07T00:58:21;13.03;;;6.30;;
4529;SDS011;2277;51.626;7.516;2022-12-07T01:00:47;6.00;;;5.40;;
4529;SDS011;2277;51.626;7.516;2022-12-07T01:03:16;7.10;;;5.50;;
4529;SDS011;2277;51.626;7.516;2022-12-07T01:05:49;7.73;;;6.87;;
4529;SDS011;2277;51.626;7.516;2022-12-07T01:08:16;9.87;;;6.70;;
4529;SDS011;2277;51.626;7.516;2022-12-07T01:10:41;7.07;;;6.27;;
4529;SDS011;2277;51.626;7.516;2022-12-07T01:13:07;6.63;;;6.00;;
4529;SDS011;2277;51.626;7.516;2022-12-07T01:15:32;9.67;;;7.23;;
4529;SDS011;2277;51.626;7.516;2022-12-07T01:17:58;5.90;;;5.40;;
4529;SDS011;2277;51.626;7.516;2022-12-07T01:20:24;10.10;;;6.50;;
4529;SDS011;2277;51.626;7.516;2022-12-07T01:22:49;6.47;;;5.77;;
4529;SDS011;2277;51.626;7.516;2022-12-07T01:25:15;10.03;;;8.50;;
4529;SDS011;2277;51.626;7.516;2022-12-07T01:27:40;7.27;;;6.13;;
4529;SDS011;2277;51.626;7.516;2022-12-07T01:30:06;8.10;;;7.40;;
4529;SDS011;2277;51.626;7.516;2022-12-07T01:32:32;7.80;;;6.23;;
4529;SDS011;2277;51.626;7.516;2022-12-07T01:34:58;8.77;;;7.93;;
4529;SDS011;2277;51.626;7.516;2022-12-07T01:37:24;9.87;;;8.13;;
4529;SDS011;2277;51.626;7.516;2022-12-07T01:39:50;7.50;;;6.87;;
4529;SDS011;2277;51.626;7.516;2022-12-07T01:42:17;7.70;;;7.00;;
4529;SDS011;2277;51.626;7.516;2022-12-07T01:47:43;12.07;;;10.10;;
4529;SDS011;2277;51.626;7.516;2022-12-07T01:50:18;6.70;;;5.77;;
4529;SDS011;2277;51.626;7.516;2022-12-07T01:52:44;11.37;;;6.30;;
4529;SDS011;2277;51.626;7.516;2022-12-07T01:55:14;9.60;;;7.20;;
4529;SDS011;2277;51.626;7.516;2022-12-07T01:57:41;10.73;;;7.83;;
4529;SDS011;2277;51.626;7.516;2022-12-07T02:00:11;12.00;;;7.07;;
4529;SDS011;2277;51.626;7.516;2022-12-07T02:02:38;9.47;;;7.07;;
4529;SDS011;2277;51.626;7.516;2022-12-07T02:05:16;6.30;;;5.80;;
4529;SDS011;2277;51.626;7.516;2022-12-07T02:07:42;10.33;;;9.40;;
4529;SDS011;2277;51.626;7.516;2022-12-07T02:10:17;8.67;;;7.37;;
4529;SDS011;2277;51.626;7.516;2022-12-07T02:12:44;7.10;;;6.50;;
4529;SDS011;2277;51.626;7.516;2022-12-07T02:15:13;8.83;;;7.27;;
4529;SDS011;2277;51.626;7.516;2022-12-07T02:17:54;6.80;;;6.20;;
4529;SDS011;2277;51.626;7.516;2022-12-07T02:23:38;10.87;;;5.00;;
4529;SDS011;2277;51.626;7.516;2022-12-07T02:31:59;7.40;;;6.80;;
4529;SDS011;2277;51.626;7.516;2022-12-07T02:34:55;9.50;;;8.43;;
4529;SDS011;2277;51.626;7.516;2022-12-07T02:37:39;7.00;;;5.97;;
4529;SDS011;2277;51.626;7.516;2022-12-07T02:40:30;12.27;;;8.83;;
4529;SDS011;2277;51.626;7.516;2022-12-07T02:43:14;13.40;;;7.60;;
4529;SDS011;2277;51.626;7.516;2022-12-07T02:45:44;9.43;;;6.73;;
4529;SDS011;2277;51.626;7.516;2022-12-07T02:48:12;8.80;;;8.00;;
4529;SDS011;2277;51.626;7.516;2022-12-07T02:50:44;6.97;;;6.27;;
4529;SDS011;2277;51.626;7.516;2022-12-07T02:53:52;9.77;;;7.93;;
4529;SDS011;2277;51.626;7.516;2022-12-07T02:56:03;14.10;;;9.70;;
4529;SDS011;2277;51.626;7.516;2022-12-07T02:58:54;7.67;;;7.03;;
4529;SDS011;2277;51.626;7.516;2022-12-07T03:07:22;6.87;;;6.27;;
4529;SDS011;2277;51.626;7.516;2022-12-07T03:15:49;10.80;;;6.77;;
4529;SDS011;2277;51.626;7.516;2022-12-07T03:18:24;8.17;;;6.03;;
4529;SDS011;2277;51.626;7.516;2022-12-07T03:20:53;7.43;;;6.70;;
4529;SDS011;2277;51.626;7.516;2022-12-07T03:23:23;6.97;;;6.40;;
4529;SDS011;2277;51.626;7.516;2022-12-07T03:25:52;10.83;;;9.67;;
4529;SDS011;2277;51.626;7.516;2022-12-07T03:28:24;7.00;;;6.20;;
4529;SDS011;2277;51.626;7.516;2022-12-07T03:30:55;9.70;;;8.00;;
4529;SDS011;2277;51.626;7.516;2022-12-07T03:33:27;8.40;;;7.60;;
4529;SDS011;2277;51.626;7.516;2022-12-07T03:36:01;9.70;;;8.23;;
4529;SDS011;2277;51.626;7.516;2022-12-07T03:38:37;8.07;;;7.27;;
4529;SDS011;2277;51.626;7.516;2022-12-07T03:41:22;11.00;;;6.93;;
4529;SDS011;2277;51.626;7.516;2022-12-07T03:43:50;7.50;;;6.73;;
4529;SDS011;2277;51.626;7.516;2022-12-07T03:54:34;11.20;;;8.20;;
4529;SDS011;2277;51.626;7.516;2022-12-07T03:57:04;8.70;;;7.77;;
4529;SDS011;2277;51.626;7.516;2022-12-07T03:59:32;10.53;;;9.47;;
4529;SDS011;2277;51.626;7.516;2022-12-07T04:02:01;19.63;;;7.67;;
4529;SDS011;2277;51.626;7.516;2022-12-07T04:04:28;7.93;;;7.03;;
4529;SDS011;2277;51.626;7.516;2022-12-07T04:06:54;9.07;;;8.17;;
4529;SDS011;2277;51.626;7.516;2022-12-07T04:09:19;7.83;;;6.70;;
4529;SDS011;2277;51.626;7.516;2022-12-07T04:11:45;7.03;;;6.43;;
4529;SDS011;2277;51.626;7.516;2022-12-07T04:14:11;7.80;;;7.10;;
4529;SDS011;2277;51.626;7.516;2022-12-07T04:16:46;11.57;;;7.60;;
4529;SDS011;2277;51.626;7.516;2022-12-07T04:19:14;5.33;;;4.80;;
4529;SDS011;2277;51.626;7.516;2022-12-07T04:21:41;9.40;;;6.10;;
4529;SDS011;2277;51.626;7.516;2022-12-07T04:24:07;7.40;;;5.80;;
4529;SDS011;2277;51.626;7.516;2022-12-07T04:26:32;7.27;;;6.03;;
4529;SDS011;2277;51.626;7.516;2022-12-07T04:28:58;9.90;;;9.00;;
4529;SDS011;2277;51.626;7.516;2022-12-07T04:31:24;10.17;;;8.43;;
4529;SDS011;2277;51.626;7.516;2022-12-07T04:33:49;6.87;;;5.97;;
4529;SDS011;2277;51.626;7.516;2022-12-07T04:36:15;9.00;;;6.47;;
4529;SDS011;2277;51.626;7.516;2022-12-07T04:38:40;11.63;;;7.03;;
4529;SDS011;2277;51.626;7.516;2022-12-07T04:41:07;11.53;;;5.77;;
4529;SDS011;2277;51.626;7.516;2022-12-07T04:43:34;9.90;;;6.07;;
4529;SDS011;2277;51.626;7.516;2022-12-07T04:46:00;8.77;;;8.03;;
4529;SDS011;2277;51.626;7.516;2022-12-07T04:48:27;14.83;;;11.70;;
4529;SDS011;2277;51.626;7.516;2022-12-07T04:50:52;8.33;;;6.27;;
4529;SDS011;2277;51.626;7.516;2022-12-07T04:53:18;7.67;;;6.93;;
4529;SDS011;2277;51.626;7.516;2022-12-07T04:55:44;8.23;;;6.10;;
4529;SDS011;2277;51.626;7.516;2022-12-07T04:58:10;16.43;;;9.10;;
4529;SDS011;2277;51.626;7.516;2022-12-07T05:00:37;7.07;;;6.37;;
4529;SDS011;2277;51.626;7.516;2022-12-07T05:03:03;8.40;;;6.63;;
4529;SDS011;2277;51.626;7.516;2022-12-07T05:05:29;10.00;;;6.00;;
4529;SDS011;2277;51.626;7.516;2022-12-07T05:07:54;23.83;;;8.00;;
4529;SDS011;2277;51.626;7.516;2022-12-07T05:10:20;8.10;;;5.80;;
4529;SDS011;2277;51.626;7.516;2022-12-07T05:12:46;23.87;;;8.33;;
4529;SDS011;2277;51.626;7.516;2022-12-07T05:15:12;11.43;;;7.23;;
4529;SDS011;2277;51.626;7.516;2022-12-07T05:17:38;7.93;;;6.63;;
4529;SDS011;2277;51.626;7.516;2022-12-07T05:20:04;10.10;;;7.17;;
4529;SDS011;2277;51.626;7.516;2022-12-07T05:22:30;7.33;;;6.23;;
4529;SDS011;2277;51.626;7.516;2022-12-07T05:24:56;6.30;;;5.70;;
4529;SDS011;2277;51.626;7.516;2022-12-07T05:27:21;7.27;;;6.67;;
4529;SDS011;2277;51.626;7.516;2022-12-07T05:29:47;10.03;;;7.00;;
4529;SDS011;2277;51.626;7.516;2022-12-07T05:32:15;11.30;;;8.13;;
4529;SDS011;2277;51.626;7.516;2022-12-07T05:34:40;10.53;;;9.37;;
4529;SDS011;2277;51.626;7.516;2022-12-07T05:37:07;11.13;;;10.00;;
4529;SDS011;2277;51.626;7.516;2022-12-07T05:39:32;9.53;;;6.20;;
4529;SDS011;2277;51.626;7.516;2022-12-07T05:41:58;12.30;;;10.37;;
4529;SDS011;2277;51.626;7.516;2022-12-07T05:44:42;9.50;;;8.60;;
4529;SDS011;2277;51.626;7.516;2022-12-07T05:47:09;23.70;;;8.40;;
4529;SDS011;2277;51.626;7.516;2022-12-07T05:49:35;15.53;;;9.43;;
4529;SDS011;2277;51.626;7.516;2022-12-07T05:52:01;12.23;;;11.33;;
4529;SDS011;2277;51.626;7.516;2022-12-07T05:54:27;8.73;;;7.83;;
4529;SDS011;2277;51.626;7.516;2022-12-07T05:56:53;11.97;;;7.80;;
4529;SDS011;2277;51.626;7.516;2022-12-07T05:59:19;7.67;;;7.17;;
4529;SDS011;2277;51.626;7.516;2022-12-07T06:01:48;8.73;;;6.13;;
4529;SDS011;2277;51.626;7.516;2022-12-07T06:04:18;7.47;;;6.63;;
4529;SDS011;2277;51.626;7.516;2022-12-07T06:06:44;9.87;;;6.10;;
4529;SDS011;2277;51.626;7.516;2022-12-07T06:09:11;8.37;;;6.00;;
4529;SDS011;2277;51.626;7.516;2022-12-07T06:11:40;9.90;;;7.43;;
4529;SDS011;2277;51.626;7.516;2022-12-07T06:14:24;10.67;;;7.37;;
4529;SDS011;2277;51.626;7.516;2022-12-07T06:16:50;7.43;;;6.83;;
4529;SDS011;2277;51.626;7.516;2022-12-07T06:19:16;11.20;;;9.63;;
4529;SDS011;2277;51.626;7.516;2022-12-07T06:21:42;14.97;;;10.00;;
4529;SDS011;2277;51.626;7.516;2022-12-07T06:24:08;7.17;;;6.47;;
4529;SDS011;2277;51.626;7.516;2022-12-07T06:26:38;8.43;;;5.43;;
4529;SDS011;2277;51.626;7.516;2022-12-07T06:29:04;9.90;;;8.97;;
4529;SDS011;2277;51.626;7.516;2022-12-07T06:31:30;8.80;;;7.73;;
4529;SDS011;2277;51.626;7.516;2022-12-07T06:33:57;12.17;;;7.10;;
4529;SDS011;2277;51.626;7.516;2022-12-07T06:36:23;9.40;;;7.83;;
4529;SDS011;2277;51.626;7.516;2022-12-07T06:38:49;17.93;;;7.20;;
4529;SDS011;2277;51.626;7.516;2022-12-07T06:41:14;6.10;;;5.50;;
4529;SDS011;2277;51.626;7.516;2022-12-07T06:43:40;8.20;;;6.43;;
4529;SDS011;2277;51.626;7.516;2022-12-07T06:46:07;11.17;;;7.20;;
4529;SDS011;2277;51.626;7.516;2022-12-07T06:48:33;7.57;;;6.83;;
4529;SDS011;2277;51.626;7.516;2022-12-07T06:50:58;9.90;;;8.80;;
4529;SDS011;2277;51.626;7.516;2022-12-07T06:53:24;22.10;;;6.90;;
4529;SDS011;2277;51.626;7.516;2022-12-07T06:55:50;6.60;;;5.10;;
4529;SDS011;2277;51.626;7.516;2022-12-07T06:58:16;9.13;;;7.53;;
4529;SDS011;2277;51.626;7.516;2022-12-07T07:00:42;12.90;;;7.83;;
4529;SDS011;2277;51.626;7.516;2022-12-07T07:03:09;11.17;;;9.23;;
4529;SDS011;2277;51.626;7.516;2022-12-07T07:05:34;12.53;;;8.07;;
4529;SDS011;2277;51.626;7.516;2022-12-07T07:08:00;8.53;;;7.33;;
4529;SDS011;2277;51.626;7.516;2022-12-07T07:10:25;7.23;;;6.53;;
4529;SDS011;2277;51.626;7.516;2022-12-07T07:12:51;7.13;;;5.40;;
4529;SDS011;2277;51.626;7.516;2022-12-07T07:15:16;6.53;;;5.87;;
4529;SDS011;2277;51.626;7.516;2022-12-07T07:17:42;9.90;;;7.47;;
4529;SDS011;2277;51.626;7.516;2022-12-07T07:20:08;6.97;;;4.87;;
4529;SDS011;2277;51.626;7.516;2022-12-07T07:22:34;6.90;;;6.30;;
4529;SDS011;2277;51.626;7.516;2022-12-07T07:25:00;10.97;;;10.03;;
4529;SDS011;2277;51.626;7.516;2022-12-07T07:27:25;8.63;;;7.73;;
4529;SDS011;2277;51.626;7.516;2022-12-07T07:29:51;7.40;;;6.70;;
4529;SDS011;2277;51.626;7.516;2022-12-07T07:32:17;6.57;;;5.97;;
4529;SDS011;2277;51.626;7.516;2022-12-07T07:34:42;11.93;;;10.83;;
4529;SDS011;2277;51.626;7.516;2022-12-07T07:37:08;6.70;;;5.43;;
4529;SDS011;2277;51.626;7.516;2022-12-07T07:39:35;6.77;;;6.23;;
4529;SDS011;2277;51.626;7.516;2022-12-07T07:42:01;6.07;;;5.57;;
4529;SDS011;2277;51.626;7.516;2022-12-07T07:44:27;8.43;;;7.63;;
4529;SDS011;2277;51.626;7.516;2022-12-07T07:46:52;7.43;;;5.67;;
4529;SDS011;2277;51.626;7.516;2022-12-07T07:49:18;6.57;;;4.67;;
4529;SDS011;2277;51.626;7.516;2022-12-07T07:51:43;10.27;;;6.53;;
4529;SDS011;2277;51.626;7.516;2022-12-07T07:54:09;7.30;;;6.70;;
4529;SDS011;2277;51.626;7.516;2022-12-07T07:56:35;6.87;;;6.27;;
4529;SDS011;2277;51.626;7.516;2022-12-07T07:59:00;15.00;;;8.00;;
4529;SDS011;2277;51.626;7.516;2022-12-07T08:01:26;6.67;;;6.07;;
4529;SDS011;2277;51.626;7.516;2022-12-07T08:03:51;6.07;;;5.57;;
4529;SDS011;2277;51.626;7.516;2022-12-07T08:06:17;5.97;;;4.80;;
4529;SDS011;2277;51.626;7.516;2022-12-07T08:08:42;6.60;;;5.83;;
4529;SDS011;2277;51.626;7.516;2022-12-07T08:11:08;9.47;;;5.90;;
4529;SDS011;2277;51.626;7.516;2022-12-07T08:13:35;9.80;;;5.87;;
4529;SDS011;2277;51.626;7.516;2022-12-07T08:16:07;5.37;;;4.93;;
4529;SDS011;2277;51.626;7.516;2022-12-07T08:18:35;7.87;;;6.03;;
4529;SDS011;2277;51.626;7.516;2022-12-07T08:21:02;6.53;;;5.70;;
4529;SDS011;2277;51.626;7.516;2022-12-07T08:23:28;5.40;;;4.47;;
4529;SDS011;2277;51.626;7.516;2022-12-07T08:25:55;7.77;;;6.60;;
4529;SDS011;2277;51.626;7.516;2022-12-07T08:28:24;20.07;;;5.37;;
4529;SDS011;2277;51.626;7.516;2022-12-07T08:30:50;12.00;;;7.93;;
4529;SDS011;2277;51.626;7.516;2022-12-07T08:33:16;6.10;;;5.20;;
4529;SDS011;2277;51.626;7.516;2022-12-07T08:35:41;9.80;;;6.70;;
4529;SDS011;2277;51.626;7.516;2022-12-07T08:38:07;5.70;;;5.30;;
4529;SDS011;2277;51.626;7.516;2022-12-07T08:40:32;6.03;;;5.53;;
4529;SDS011;2277;51.626;7.516;2022-12-07T08:42:58;15.77;;;7.17;;
4529;SDS011;2277;51.626;7.516;2022-12-07T08:45:23;9.83;;;6.30;;
4529;SDS011;2277;51.626;7.516;2022-12-07T08:48:23;6.87;;;5.47;;
4529;SDS011;2277;51.626;7.516;2022-12-07T08:50:46;4.77;;;4.37;;
4529;SDS011;2277;51.626;7.516;2022-12-07T08:53:13;5.30;;;4.80;;
4529;SDS011;2277;51.626;7.516;2022-12-07T08:55:39;5.23;;;4.77;;
4529;SDS011;2277;51.626;7.516;2022-12-07T08:58:05;5.80;;;5.10;;
4529;SDS011;2277;51.626;7.516;2022-12-07T09:00:30;13.30;;;5.20;;
4529;SDS011;2277;51.626;7.516;2022-12-07T09:02:56;7.43;;;6.40;;
4529;SDS011;2277;51.626;7.516;2022-12-07T09:05:22;16.03;;;6.27;;
4529;SDS011;2277;51.626;7.516;2022-12-07T09:07:48;7.30;;;4.93;;
4529;SDS011;2277;51.626;7.516;2022-12-07T09:10:19;5.03;;;4.27;;
4529;SDS011;2277;51.626;7.516;2022-12-07T09:12:45;8.43;;;5.10;;
4529;SDS011;2277;51.626;7.516;2022-12-07T09:15:10;6.93;;;6.30;;
4529;SDS011;2277;51.626;7.516;2022-12-07T09:17:36;5.80;;;5.17;;
4529;SDS011;2277;51.626;7.516;2022-12-07T09:20:02;5.50;;;4.67;;
4529;SDS011;2277;51.626;7.516;2022-12-07T09:22:29;6.67;;;5.57;;
4529;SDS011;2277;51.626;7.516;2022-12-07T09:24:56;6.03;;;5.47;;
4529;SDS011;2277;51.626;7.516;2022-12-07T09:27:22;4.60;;;3.70;;
4529;SDS011;2277;51.626;7.516;2022-12-07T09:29:48;6.93;;;5.53;;
4529;SDS011;2277;51.626;7.516;2022-12-07T09:32:13;6.53;;;5.87;;
4529;SDS011;2277;51.626;7.516;2022-12-07T09:34:39;9.40;;;7.83;;
4529;SDS011;2277;51.626;7.516;2022-12-07T09:37:04;7.23;;;5.67;;
4529;SDS011;2277;51.626;7.516;2022-12-07T09:39:31;5.70;;;5.20;;
4529;SDS011;2277;51.626;7.516;2022-12-07T09:41:57;5.30;;;4.80;;
4529;SDS011;2277;51.626;7.516;2022-12-07T09:44:24;6.57;;;5.03;;
4529;SDS011;2277;51.626;7.516;2022-12-07T09:46:51;5.77;;;5.23;;
4529;SDS011;2277;51.626;7.516;2022-12-07T09:49:19;18.03;;;6.23;;
4529;SDS011;2277;51.626;7.516;2022-12-07T09:51:59;3.40;;;3.20;;
4529;SDS011;2277;51.626;7.516;2022-12-07T09:54:46;6.90;;;4.60;;
4529;SDS011;2277;51.626;7.516;2022-12-07T09:57:14;6.77;;;3.10;;
4529;SDS011;2277;51.626;7.516;2022-12-07T09:59:40;3.53;;;2.57;;
4529;SDS011;2277;51.626;7.516;2022-12-07T10:02:28;6.60;;;3.60;;
4529;SDS011;2277;51.626;7.516;2022-12-07T10:05:03;5.07;;;3.03;;
4529;SDS011;2277;51.626;7.516;2022-12-07T10:07:30;4.60;;;3.87;;
4529;SDS011;2277;51.626;7.516;2022-12-07T10:09:56;2.90;;;2.70;;
4529;SDS011;2277;51.626;7.516;2022-12-07T10:12:22;7.87;;;3.60;;
4529;SDS011;2277;51.626;7.516;2022-12-07T10:15:00;4.90;;;4.37;;
4529;SDS011;2277;51.626;7.516;2022-12-07T10:17:38;3.90;;;2.00;;
4529;SDS011;2277;51.626;7.516;2022-12-07T10:22:37;3.97;;;2.20;;
4529;SDS011;2277;51.626;7.516;2022-12-07T10:25:09;7.50;;;2.60;;
4529;SDS011;2277;51.626;7.516;2022-12-07T10:27:44;2.70;;;2.50;;
4529;SDS011;2277;51.626;7.516;2022-12-07T10:33:32;3.00;;;2.67;;
4529;SDS011;2277;51.626;7.516;2022-12-07T10:36:15;4.03;;;2.67;;
4529;SDS011;2277;51.626;7.516;2022-12-07T10:38:52;11.30;;;3.03;;
4529;SDS011;2277;51.626;7.516;2022-12-07T10:41:24;3.83;;;2.93;;
4529;SDS011;2277;51.626;7.516;2022-12-07T10:43:51;3.27;;;2.90;;
4529;SDS011;2277;51.626;7.516;2022-12-07T10:46:23;3.67;;;3.30;;
4529;SDS011;2277;51.626;7.516;2022-12-07T10:56:54;4.07;;;2.50;;
4529;SDS011;2277;51.626;7.516;2022-12-07T11:08:05;2.60;;;2.27;;
4529;SDS011;2277;51.626;7.516;2022-12-07T11:11:19;2.00;;;1.53;;
4529;SDS011;2277;51.626;7.516;2022-12-07T11:13:54;4.37;;;2.73;;
4529;SDS011;2277;51.626;7.516;2022-12-07T11:21:56;2.40;;;2.20;;
4529;SDS011;2277;51.626;7.516;2022-12-07T11:24:26;2.43;;;2.00;;
4529;SDS011;2277;51.626;7.516;2022-12-07T11:38:41;3.47;;;3.13;;
4529;SDS011;2277;51.626;7.516;2022-12-07T11:41:11;3.10;;;2.80;;
4529;SDS011;2277;51.626;7.516;2022-12-07T11:43:42;2.40;;;2.20;;
4529;SDS011;2277;51.626;7.516;2022-12-07T11:46:17;3.47;;;3.23;;
4529;SDS011;2277;51.626;7.516;2022-12-07T11:51:17;10.97;;;4.67;;
4529;SDS011;2277;51.626;7.516;2022-12-07T11:53:53;4.57;;;2.43;;
4529;SDS011;2277;51.626;7.516;2022-12-07T11:56:23;13.70;;;3.37;;
4529;SDS011;2277;51.626;7.516;2022-12-07T12:06:57;2.33;;;2.13;;
4529;SDS011;2277;51.626;7.516;2022-12-07T12:09:25;4.83;;;3.40;;
4529;SDS011;2277;51.626;7.516;2022-12-07T12:17:32;7.00;;;4.07;;
4529;SDS011;2277;51.626;7.516;2022-12-07T12:23:43;2.63;;;2.20;;
4529;SDS011;2277;51.626;7.516;2022-12-07T12:26:20;2.93;;;2.70;;
4529;SDS011;2277;51.626;7.516;2022-12-07T12:31:15;2.70;;;1.63;;
4529;SDS011;2277;51.626;7.516;2022-12-07T12:33:47;4.20;;;2.30;;
4529;SDS011;2277;51.626;7.516;2022-12-07T12:36:20;3.10;;;2.90;;
4529;SDS011;2277;51.626;7.516;2022-12-07T12:46:53;5.00;;;2.77;;
4529;SDS011;2277;51.626;7.516;2022-12-07T12:51:50;4.27;;;3.97;;
4529;SDS011;2277;51.626;7.516;2022-12-07T13:00:16;3.10;;;2.30;;
4529;SDS011;2277;51.626;7.516;2022-12-07T13:02:29;7.67;;;4.00;;
4529;SDS011;2277;51.626;7.516;2022-12-07T13:05:00;4.00;;;2.87;;
4529;SDS011;2277;51.626;7.516;2022-12-07T13:26:17;7.43;;;1.53;;
4529;SDS011;2277;51.626;7.516;2022-12-07T13:31:18;4.07;;;2.43;;
4529;SDS011;2277;51.626;7.516;2022-12-07T13:33:51;2.90;;;2.30;;
4529;SDS011;2277;51.626;7.516;2022-12-07T13:36:30;2.47;;;2.27;;
4529;SDS011;2277;51.626;7.516;2022-12-07T13:39:19;3.10;;;2.80;;
4529;SDS011;2277;51.626;7.516;2022-12-07T13:41:50;2.73;;;2.47;;
4529;SDS011;2277;51.626;7.516;2022-12-07T13:44:18;5.37;;;3.30;;
4529;SDS011;2277;51.626;7.516;2022-12-07T13:49:30;2.30;;;2.10;;
4529;SDS011;2277;51.626;7.516;2022-12-07T13:54:45;1.60;;;1.50;;
4529;SDS011;2277;51.626;7.516;2022-12-07T13:57:33;9.43;;;2.77;;
4529;SDS011;2277;51.626;7.516;2022-12-07T14:00:03;4.73;;;2.77;;
4529;SDS011;2277;51.626;7.516;2022-12-07T14:02:32;2.80;;;2.10;;
4529;SDS011;2277;51.626;7.516;2022-12-07T14:05:34;3.93;;;2.80;;
4529;SDS011;2277;51.626;7.516;2022-12-07T14:08:00;2.67;;;1.43;;
4529;SDS011;2277;51.626;7.516;2022-12-07T14:16:00;3.13;;;2.87;;
4529;SDS011;2277;51.626;7.516;2022-12-07T14:18:37;4.10;;;3.27;;
4529;SDS011;2277;51.626;7.516;2022-12-07T14:21:06;9.13;;;2.80;;
4529;SDS011;2277;51.626;7.516;2022-12-07T14:23:35;3.10;;;2.80;;
4529;SDS011;2277;51.626;7.516;2022-12-07T14:26:34;2.20;;;2.00;;
4529;SDS011;2277;51.626;7.516;2022-12-07T14:28:59;3.30;;;2.97;;
4529;SDS011;2277;51.626;7.516;2022-12-07T14:31:47;4.63;;;2.43;;
4529;SDS011;2277;51.626;7.516;2022-12-07T14:34:13;1.73;;;1.20;;
4529;SDS011;2277;51.626;7.516;2022-12-07T14:36:39;2.33;;;1.73;;
4529;SDS011;2277;51.626;7.516;2022-12-07T14:39:04;4.10;;;3.03;;
4529;SDS011;2277;51.626;7.516;2022-12-07T14:41:30;2.40;;;1.40;;
4529;SDS011;2277;51.626;7.516;2022-12-07T14:44:14;1.47;;;1.23;;
4529;SDS011;2277;51.626;7.516;2022-12-07T14:46:40;2.87;;;2.67;;
4529;SDS011;2277;51.626;7.516;2022-12-07T14:49:06;6.40;;;2.43;;
4529;SDS011;2277;51.626;7.516;2022-12-07T14:51:31;2.60;;;2.40;;
4529;SDS011;2277;51.626;7.516;2022-12-07T14:53:58;5.63;;;3.53;;
4529;SDS011;2277;51.626;7.516;2022-12-07T14:56:24;2.50;;;2.30;;
4529;SDS011;2277;51.626;7.516;2022-12-07T14:58:50;3.83;;;1.90;;
4529;SDS011;2277;51.626;7.516;2022-12-07T15:01:16;6.27;;;2.80;;
4529;SDS011;2277;51.626;7.516;2022-12-07T15:03:41;10.40;;;3.20;;
4529;SDS011;2277;51.626;7.516;2022-12-07T15:06:07;1.97;;;1.77;;
4529;SDS011;2277;51.626;7.516;2022-12-07T15:08:32;4.30;;;3.30;;
4529;SDS011;2277;51.626;7.516;2022-12-07T15:10:58;6.30;;;3.70;;
4529;SDS011;2277;51.626;7.516;2022-12-07T15:13:24;3.97;;;3.10;;
4529;SDS011;2277;51.626;7.516;2022-12-07T15:16:10;4.00;;;3.60;;
4529;SDS011;2277;51.626;7.516;2022-12-07T15:18:38;3.63;;;2.80;;
4529;SDS011;2277;51.626;7.516;2022-12-07T15:21:03;4.73;;;4.03;;
4529;SDS011;2277;51.626;7.516;2022-12-07T15:23:29;10.33;;;2.40;;
4529;SDS011;2277;51.626;7.516;2022-12-07T15:25:56;7.60;;;4.10;;
4529;SDS011;2277;51.626;7.516;2022-12-07T15:28:21;3.40;;;3.10;;
4529;SDS011;2277;51.626;7.516;2022-12-07T15:30:47;4.13;;;2.97;;
4529;SDS011;2277;51.626;7.516;2022-12-07T15:33:13;9.27;;;6.33;;
4529;SDS011;2277;51.626;7.516;2022-12-07T15:35:39;11.23;;;3.87;;
4529;SDS011;2277;51.626;7.516;2022-12-07T15:38:05;6.40;;;3.10;;
4529;SDS011;2277;51.626;7.516;2022-12-07T15:40:31;18.93;;;3.73;;
4529;SDS011;2277;51.626;7.516;2022-12-07T15:42:56;3.63;;;3.30;;
4529;SDS011;2277;51.626;7.516;2022-12-07T15:45:22;5.73;;;4.10;;
4529;SDS011;2277;51.626;7.516;2022-12-07T15:47:48;2.90;;;2.70;;
4529;SDS011;2277;51.626;7.516;2022-12-07T15:50:14;3.50;;;3.20;;
4529;SDS011;2277;51.626;7.516;2022-12-07T15:52:41;2.93;;;2.73;;
4529;SDS011;2277;51.626;7.516;2022-12-07T15:55:08;6.30;;;5.00;;
4529;SDS011;2277;51.626;7.516;2022-12-07T15:57:35;4.90;;;3.23;;
4529;SDS011;2277;51.626;7.516;2022-12-07T16:00:03;7.03;;;4.20;;
4529;SDS011;2277;51.626;7.516;2022-12-07T16:02:29;3.47;;;2.20;;
4529;SDS011;2277;51.626;7.516;2022-12-07T16:04:55;4.80;;;3.43;;
4529;SDS011;2277;51.626;7.516;2022-12-07T16:07:21;5.10;;;4.63;;
4529;SDS011;2277;51.626;7.516;2022-12-07T16:09:47;5.93;;;5.53;;
4529;SDS011;2277;51.626;7.516;2022-12-07T16:12:14;5.33;;;4.00;;
4529;SDS011;2277;51.626;7.516;2022-12-07T16:14:40;4.93;;;4.27;;
4529;SDS011;2277;51.626;7.516;2022-12-07T16:17:07;6.13;;;3.00;;
4529;SDS011;2277;51.626;7.516;2022-12-07T16:19:34;4.00;;;3.63;;
4529;SDS011;2277;51.626;7.516;2022-12-07T16:22:00;3.93;;;2.70;;
4529;SDS011;2277;51.626;7.516;2022-12-07T16:24:26;4.77;;;4.37;;
4529;SDS011;2277;51.626;7.516;2022-12-07T16:26:51;15.40;;;4.57;;
4529;SDS011;2277;51.626;7.516;2022-12-07T16:29:18;7.23;;;4.30;;
4529;SDS011;2277;51.626;7.516;2022-12-07T16:31:45;5.20;;;2.50;;
4529;SDS011;2277;51.626;7.516;2022-12-07T16:34:11;3.33;;;3.00;;
4529;SDS011;2277;51.626;7.516;2022-12-07T16:36:36;6.20;;;5.60;;
4529;SDS011;2277;51.626;7.516;2022-12-07T16:39:02;5.40;;;3.80;;
4529;SDS011;2277;51.626;7.516;2022-12-07T16:41:29;4.07;;;3.70;;
4529;SDS011;2277;51.626;7.516;2022-12-07T16:43:55;13.80;;;7.67;;
4529;SDS011;2277;51.626;7.516;2022-12-07T16:46:20;5.87;;;3.40;;
4529;SDS011;2277;51.626;7.516;2022-12-07T16:48:46;5.77;;;4.40;;
4529;SDS011;2277;51.626;7.516;2022-12-07T16:51:12;5.73;;;5.33;;
4529;SDS011;2277;51.626;7.516;2022-12-07T16:53:39;4.03;;;3.73;;
4529;SDS011;2277;51.626;7.516;2022-12-07T16:56:15;7.93;;;4.63;;
4529;SDS011;2277;51.626;7.516;2022-12-07T16:58:42;3.80;;;3.17;;
4529;SDS011;2277;51.626;7.516;2022-12-07T17:01:11;3.90;;;3.60;;
4529;SDS011;2277;51.626;7.516;2022-12-07T17:03:45;5.83;;;3.60;;
4529;SDS011;2277;51.626;7.516;2022-12-07T17:08:47;5.53;;;3.57;;
4529;SDS011;2277;51.626;7.516;2022-12-07T17:11:15;6.43;;;3.80;;
4529;SDS011;2277;51.626;7.516;2022-12-07T17:13:42;8.60;;;4.10;;
4529;SDS011;2277;51.626;7.516;2022-12-07T17:16:26;4.37;;;3.97;;
4529;SDS011;2277;51.626;7.516;2022-12-07T17:18:52;5.00;;;4.43;;
4529;SDS011;2277;51.626;7.516;2022-12-07T17:21:18;4.63;;;3.13;;
4529;SDS011;2277;51.626;7.516;2022-12-07T17:23:43;5.53;;;5.07;;
4529;SDS011;2277;51.626;7.516;2022-12-07T17:26:10;4.10;;;2.93;;
4529;SDS011;2277;51.626;7.516;2022-12-07T17:28:38;7.57;;;6.27;;
4529;SDS011;2277;51.626;7.516;2022-12-07T17:31:05;4.77;;;3.50;;
4529;SDS011;2277;51.626;7.516;2022-12-07T17:33:32;5.30;;;3.60;;
4529;SDS011;2277;51.626;7.516;2022-12-07T17:35:58;7.50;;;5.00;;
4529;SDS011;2277;51.626;7.516;2022-12-07T17:38:24;3.27;;;2.87;;
4529;SDS011;2277;51.626;7.516;2022-12-07T17:40:50;3.97;;;3.47;;
4529;SDS011;2277;51.626;7.516;2022-12-07T17:43:16;7.93;;;3.40;;
4529;SDS011;2277;51.626;7.516;2022-12-07T17:45:41;5.30;;;2.70;;
4529;SDS011;2277;51.626;7.516;2022-12-07T17:48:07;4.87;;;3.63;;
4529;SDS011;2277;51.626;7.516;2022-12-07T17:50:32;2.60;;;2.40;;